createdAt,value
2022-10-16T00:02:23.833Z,12.55
2022-10-16T00:04:58.833Z,13.75
2022-10-16T00:07:33.601Z,12.05
2022-10-16T00:10:14.789Z,13.30
2022-10-16T00:12:50.065Z,12.40
2022-10-16T00:15:27.626Z,14.82
2022-10-16T00:18:01.725Z,12.48
2022-10-16T00:20:38.326Z,13.30
2022-10-16T00:23:13.708Z,12.15
2022-10-16T00:25:48.739Z,12.40
2022-10-16T00:28:24.256Z,12.05
2022-10-16T00:31:03.221Z,11.35
2022-10-16T00:33:37.781Z,12.10
2022-10-16T00:36:14.229Z,10.35
2022-10-16T00:38:49.190Z,11.23
2022-10-16T00:41:24.416Z,11.25
2022-10-16T00:43:59.665Z,12.02
2022-10-16T00:46:39.484Z,12.10
2022-10-16T00:49:16.448Z,11.82
2022-10-16T00:51:51.829Z,11.13
2022-10-16T00:54:27.595Z,11.20
2022-10-16T00:57:05.025Z,12.45
2022-10-16T00:59:42.674Z,11.00
2022-10-16T01:02:22.630Z,10.75
2022-10-16T01:04:57.892Z,11.27
2022-10-16T01:07:39.021Z,11.88
2022-10-16T01:10:18.182Z,10.00
2022-10-16T01:12:55.049Z,9.52
2022-10-16T01:15:31.316Z,9.45
2022-10-16T01:18:13.248Z,9.20
2022-10-16T01:20:47.010Z,8.20
2022-10-16T01:23:31.968Z,9.20
2022-10-16T01:26:31.551Z,7.95
2022-10-16T01:29:11.922Z,8.73
2022-10-16T01:31:47.367Z,7.80
2022-10-16T01:34:24.923Z,7.75
2022-10-16T01:37:01.079Z,8.33
2022-10-16T01:39:38.481Z,8.20
2022-10-16T01:42:15.877Z,7.85
2022-10-16T01:44:53.288Z,7.55
2022-10-16T01:47:30.002Z,6.85
2022-10-16T01:50:06.022Z,6.70
2022-10-16T01:55:21.032Z,6.75
2022-10-16T01:57:56.457Z,7.35
2022-10-16T02:00:34.772Z,6.60
2022-10-16T02:03:11.264Z,6.85
2022-10-16T02:05:46.690Z,6.60
2022-10-16T02:08:21.197Z,6.35
2022-10-16T02:10:56.446Z,5.68
2022-10-16T02:13:36.296Z,6.10
2022-10-16T02:16:14.547Z,6.70
2022-10-16T02:18:51.521Z,5.57
2022-10-16T02:21:29.498Z,6.40
2022-10-16T02:24:06.961Z,6.50
2022-10-16T02:26:45.386Z,5.90
2022-10-16T02:29:23.271Z,6.20
2022-10-16T02:32:03.797Z,5.75
2022-10-16T02:34:38.608Z,5.75
2022-10-16T02:37:14.041Z,6.95
2022-10-16T02:39:48.908Z,6.50
2022-10-16T02:42:23.145Z,7.00
2022-10-16T02:45:01.748Z,5.90
2022-10-16T02:47:41.680Z,6.90
2022-10-16T02:50:17.946Z,8.05
2022-10-16T02:52:52.546Z,6.75
2022-10-16T02:55:29.359Z,7.00
2022-10-16T02:58:06.017Z,7.20
2022-10-16T03:00:42.434Z,7.35
2022-10-16T03:03:20.881Z,6.75
2022-10-16T03:05:55.024Z,6.50
2022-10-16T03:08:31.076Z,6.90
2022-10-16T03:13:43.024Z,8.10
2022-10-16T03:16:19.710Z,8.45
2022-10-16T03:18:56.834Z,8.13
2022-10-16T03:21:30.981Z,8.15
2022-10-16T03:24:07.667Z,8.38
2022-10-16T03:26:42.774Z,8.18
2022-10-16T03:29:17.948Z,8.25
2022-10-16T03:31:52.923Z,7.20
2022-10-16T03:34:32.559Z,8.18
2022-10-16T03:37:08.148Z,8.00
2022-10-16T03:39:44.263Z,8.23
2022-10-16T03:42:19.718Z,7.87
2022-10-16T03:44:55.699Z,7.40
2022-10-16T03:47:31.272Z,8.20
2022-10-16T03:50:12.429Z,8.65
2022-10-16T03:52:46.856Z,8.75
2022-10-16T03:55:20.824Z,9.33
2022-10-16T03:57:57.259Z,8.70
2022-10-16T04:00:35.921Z,8.30
2022-10-16T04:03:05.154Z,8.35
2022-10-16T04:05:45.784Z,8.02
2022-10-16T04:08:21.046Z,8.82
2022-10-16T04:10:58.556Z,9.00
2022-10-16T04:13:35.103Z,9.30
2022-10-16T04:16:10.879Z,9.80
2022-10-16T04:18:44.952Z,8.48
2022-10-16T04:21:21.815Z,9.20
2022-10-16T04:23:59.139Z,9.05
2022-10-16T04:26:34.575Z,9.40
2022-10-16T04:29:13.088Z,9.70
2022-10-16T04:31:48.312Z,10.43
2022-10-16T04:34:26.277Z,10.77
2022-10-16T04:37:09.794Z,11.47
2022-10-16T04:39:46.115Z,12.73
2022-10-16T04:42:20.978Z,12.52
2022-10-16T04:44:55.819Z,12.10
2022-10-16T04:47:32.006Z,11.73
2022-10-16T04:50:06.434Z,12.15
2022-10-16T04:52:44.712Z,10.75
2022-10-16T04:55:21.776Z,10.52
2022-10-16T04:57:56.865Z,11.75
2022-10-16T05:00:31.635Z,10.70
2022-10-16T05:03:08.708Z,11.40
2022-10-16T05:05:48.058Z,10.55
2022-10-16T05:08:27.445Z,11.27
2022-10-16T05:11:06.585Z,9.50
2022-10-16T05:13:43.234Z,9.60
2022-10-16T05:16:19.137Z,9.90
2022-10-16T05:21:45.736Z,9.38
2022-10-16T05:24:23.886Z,8.38
2022-10-16T05:27:00.048Z,9.07
2022-10-16T05:29:35.326Z,9.25
2022-10-16T05:32:10.407Z,7.80
2022-10-16T05:34:46.113Z,9.10
2022-10-16T05:37:21.208Z,9.20
2022-10-16T05:39:56.728Z,7.80
2022-10-16T05:42:35.828Z,8.52
2022-10-16T05:45:12.216Z,7.95
2022-10-16T05:47:43.448Z,8.25
2022-10-16T05:50:18.215Z,8.90
2022-10-16T05:52:53.660Z,8.20
2022-10-16T05:55:29.403Z,8.40
2022-10-16T05:58:09.252Z,7.85
2022-10-16T06:00:47.152Z,8.30
2022-10-16T06:03:25.116Z,7.18
2022-10-16T06:06:00.120Z,8.27
2022-10-16T06:08:34.925Z,7.20
2022-10-16T06:11:09.901Z,6.72
2022-10-16T06:13:48.892Z,7.67
2022-10-16T06:16:24.190Z,7.05
2022-10-16T06:19:01.099Z,7.60
2022-10-16T06:21:35.216Z,8.43
2022-10-16T06:24:12.316Z,7.68
2022-10-16T06:26:51.869Z,7.60
2022-10-16T06:29:29.821Z,7.15
2022-10-16T06:32:07.486Z,7.05
2022-10-16T06:34:44.179Z,7.03
2022-10-16T06:37:19.869Z,7.57
2022-10-16T06:39:53.579Z,8.02
2022-10-16T06:42:29.804Z,8.98
2022-10-16T06:45:09.597Z,8.23
2022-10-16T06:47:44.357Z,8.85
2022-10-16T06:50:20.687Z,7.78
2022-10-16T06:52:55.932Z,8.55
2022-10-16T06:55:34.042Z,8.73
2022-10-16T06:58:10.251Z,6.67
2022-10-16T07:00:49.333Z,8.60
2022-10-16T07:03:24.789Z,8.30
2022-10-16T07:06:00.474Z,8.05
2022-10-16T07:08:36.864Z,8.07
2022-10-16T07:11:12.116Z,8.85
2022-10-16T07:13:50.816Z,8.55
2022-10-16T07:16:32.480Z,7.68
2022-10-16T07:19:10.380Z,7.57
2022-10-16T07:21:45.912Z,7.65
2022-10-16T07:24:23.190Z,7.38
2022-10-16T07:26:58.135Z,7.05
2022-10-16T07:29:32.423Z,11.47
2022-10-16T07:32:10.514Z,7.45
2022-10-16T07:34:46.970Z,6.35
2022-10-16T07:37:21.733Z,5.85
2022-10-16T07:39:59.967Z,6.35
2022-10-16T07:42:33.013Z,5.95
2022-10-16T07:45:08.369Z,4.93
2022-10-16T07:47:46.674Z,5.13
2022-10-16T07:50:21.143Z,4.25
2022-10-16T07:52:56.049Z,4.78
2022-10-16T07:55:32.227Z,4.57
2022-10-16T07:58:07.784Z,4.75
2022-10-16T08:00:44.352Z,4.60
2022-10-16T08:03:22.092Z,4.85
2022-10-16T08:05:59.123Z,4.97
2022-10-16T08:08:34.893Z,5.05
2022-10-16T08:11:10.206Z,4.93
2022-10-16T08:13:45.105Z,5.07
2022-10-16T08:16:19.702Z,4.68
2022-10-16T08:18:57.764Z,4.78
2022-10-16T08:21:34.737Z,4.40
2022-10-16T08:24:10.148Z,4.63
2022-10-16T08:26:45.908Z,4.72
2022-10-16T08:29:21.516Z,4.78
2022-10-16T08:31:57.311Z,4.00
2022-10-16T08:34:35.587Z,3.80
2022-10-16T08:37:12.579Z,3.37
2022-10-16T08:39:47.536Z,3.40
2022-10-16T08:42:33.812Z,3.60
2022-10-16T08:45:40.988Z,3.23
2022-10-16T08:48:21.175Z,2.83
2022-10-16T08:50:59.928Z,2.50
2022-10-16T08:53:38.057Z,3.00
2022-10-16T08:56:13.768Z,2.80
2022-10-16T09:01:45.307Z,2.97
2022-10-16T09:04:56.679Z,2.90
2022-10-16T09:07:26.521Z,2.85
2022-10-16T09:10:34.717Z,2.80
2022-10-16T09:13:16.130Z,2.80
2022-10-16T09:15:52.920Z,2.65
2022-10-16T09:18:32.669Z,2.80
2022-10-16T09:21:13.446Z,2.50
2022-10-16T09:23:54.426Z,2.70
2022-10-16T09:26:29.895Z,2.55
2022-10-16T09:29:06.151Z,2.90
2022-10-16T09:31:41.618Z,2.50
2022-10-16T09:34:24.319Z,2.40
2022-10-16T09:37:00.176Z,2.70
2022-10-16T09:42:14.204Z,2.10
2022-10-16T09:44:55.051Z,1.88
2022-10-16T09:47:30.579Z,2.03
2022-10-16T09:50:07.411Z,2.30
2022-10-16T09:52:47.359Z,2.30
2022-10-16T09:55:22.794Z,2.33
2022-10-16T09:58:02.389Z,1.92
2022-10-16T10:00:38.994Z,2.17
2022-10-16T10:03:15.341Z,1.90
2022-10-16T10:05:52.537Z,2.10
2022-10-16T10:08:28.005Z,2.03
2022-10-16T10:11:04.008Z,2.00
2022-10-16T10:13:46.547Z,2.20
2022-10-16T10:16:29.475Z,2.35
2022-10-16T10:19:04.531Z,1.80
2022-10-16T10:21:39.773Z,2.00
2022-10-16T10:24:17.012Z,1.98
2022-10-16T10:26:54.924Z,2.65
2022-10-16T10:29:51.403Z,2.30
2022-10-16T10:35:40.071Z,1.95
2022-10-16T10:38:23.153Z,1.73
2022-10-16T10:41:03.706Z,1.85
2022-10-16T10:43:47.715Z,1.63
2022-10-16T10:46:31.250Z,2.05
2022-10-16T10:49:40.170Z,2.05
2022-10-16T10:52:26.959Z,1.70
2022-10-16T10:55:11.378Z,1.80
2022-10-16T10:57:48.677Z,1.75
2022-10-16T11:00:26.217Z,1.47
2022-10-16T11:03:08.984Z,1.50
2022-10-16T11:05:47.598Z,1.52
2022-10-16T11:08:31.039Z,1.60
2022-10-16T11:11:12.100Z,1.60
2022-10-16T11:13:50.096Z,1.50
2022-10-16T11:16:26.975Z,1.45
2022-10-16T11:19:07.324Z,1.65
2022-10-16T11:21:54.266Z,1.80
2022-10-16T11:24:34.780Z,1.30
2022-10-16T11:27:11.631Z,1.58
2022-10-16T11:29:45.283Z,1.85
2022-10-16T11:32:26.833Z,1.90
2022-10-16T11:35:00.318Z,1.80
2022-10-16T11:37:40.998Z,1.77
2022-10-16T11:40:23.513Z,1.63
2022-10-16T11:43:00.083Z,2.15
2022-10-16T11:45:37.438Z,1.60
2022-10-16T11:48:17.086Z,1.85
2022-10-16T11:50:54.446Z,1.50
2022-10-16T11:53:41.821Z,2.00
2022-10-16T11:56:17.137Z,2.47
2022-10-16T11:58:51.489Z,1.83
2022-10-16T12:01:29.447Z,2.00
2022-10-16T12:04:18.304Z,1.75
2022-10-16T12:06:54.632Z,1.95
2022-10-16T12:09:33.202Z,2.08
2022-10-16T12:12:08.657Z,1.80
2022-10-16T12:15:03.849Z,1.92
2022-10-16T12:17:39.879Z,2.03
2022-10-16T12:20:28.492Z,2.55
2022-10-16T12:23:04.807Z,2.30
2022-10-16T12:25:47.670Z,2.30
2022-10-16T12:28:25.106Z,2.30
2022-10-16T12:30:57.643Z,2.33
2022-10-16T12:33:33.385Z,2.47
2022-10-16T12:38:43.183Z,2.05
2022-10-16T12:41:28.965Z,2.38
2022-10-16T12:44:03.279Z,2.40
2022-10-16T12:46:41.411Z,2.78
2022-10-16T12:49:26.824Z,2.70
2022-10-16T12:52:01.335Z,2.30
2022-10-16T12:54:39.243Z,2.50
2022-10-16T12:57:40.925Z,2.40
2022-10-16T13:00:20.338Z,2.60
2022-10-16T13:03:13.075Z,2.67
2022-10-16T13:05:52.645Z,2.83
2022-10-16T13:08:35.589Z,2.78
2022-10-16T13:11:12.361Z,3.00
2022-10-16T13:14:04.650Z,2.95
2022-10-16T13:16:50.431Z,3.20
2022-10-16T13:19:24.482Z,3.45
2022-10-16T13:22:03.486Z,3.10
2022-10-16T13:24:51.555Z,3.30
2022-10-16T13:27:31.420Z,3.10
2022-10-16T13:30:07.642Z,3.20
2022-10-16T13:32:44.501Z,3.30
2022-10-16T13:35:27.377Z,3.43
2022-10-16T13:38:18.001Z,3.30
2022-10-16T13:40:56.457Z,3.10
2022-10-16T13:43:33.228Z,2.88
2022-10-16T13:46:08.915Z,2.90
2022-10-16T13:51:19.836Z,2.97
2022-10-16T13:53:54.157Z,2.90
2022-10-16T13:56:30.139Z,3.00
2022-10-16T13:59:04.577Z,3.38
2022-10-16T14:01:39.494Z,3.03
2022-10-16T14:04:17.159Z,3.03
2022-10-16T14:06:53.090Z,3.20
2022-10-16T14:09:28.349Z,2.90
2022-10-16T14:12:04.319Z,3.20
2022-10-16T14:14:39.722Z,3.35
2022-10-16T14:17:18.270Z,3.47
2022-10-16T14:19:59.589Z,2.60
2022-10-16T14:22:38.807Z,3.15
2022-10-16T14:25:32.024Z,2.58
2022-10-16T14:28:07.925Z,2.38
2022-10-16T14:30:42.609Z,2.65
2022-10-16T14:33:25.169Z,2.97
2022-10-16T14:36:07.969Z,2.70
2022-10-16T14:38:42.793Z,2.30
2022-10-16T14:41:17.257Z,2.30
2022-10-16T14:43:54.960Z,2.85
2022-10-16T14:46:34.631Z,2.63
2022-10-16T14:49:16.983Z,3.03
2022-10-16T14:51:54.549Z,2.80
2022-10-16T14:54:29.125Z,2.60
2022-10-16T14:57:03.584Z,2.28
2022-10-16T14:59:39.605Z,2.45
2022-10-16T15:02:21.645Z,2.67
2022-10-16T15:04:56.114Z,2.40
2022-10-16T15:07:32.471Z,2.70
2022-10-16T15:10:08.301Z,2.93
2022-10-16T15:12:43.263Z,2.50
2022-10-16T15:15:39.248Z,3.07
2022-10-16T15:18:14.822Z,3.15
2022-10-16T15:20:48.867Z,2.30
2022-10-16T15:26:20.227Z,2.80
2022-10-16T15:28:54.601Z,2.90
2022-10-16T15:31:29.260Z,3.05
2022-10-16T15:34:05.499Z,3.60
2022-10-16T15:36:41.911Z,3.70
2022-10-16T15:39:20.308Z,4.53
2022-10-16T15:41:57.050Z,3.90
2022-10-16T15:44:31.564Z,3.85
2022-10-16T15:47:06.031Z,3.78
2022-10-16T15:49:40.978Z,3.90
2022-10-16T15:52:15.074Z,3.42
2022-10-16T15:54:54.271Z,3.63
2022-10-16T15:57:29.087Z,4.60
2022-10-16T16:00:05.331Z,4.95
2022-10-16T16:02:46.013Z,4.22
2022-10-16T16:05:20.005Z,4.05
2022-10-16T16:07:53.986Z,4.70
2022-10-16T16:10:30.490Z,4.80
2022-10-16T16:13:04.975Z,5.45
2022-10-16T16:15:38.825Z,4.55
2022-10-16T16:18:12.828Z,5.20
2022-10-16T16:20:46.854Z,5.78
2022-10-16T16:23:21.264Z,5.70
2022-10-16T16:26:11.365Z,5.40
2022-10-16T16:28:46.488Z,5.80
2022-10-16T16:33:52.879Z,6.45
2022-10-16T16:36:26.870Z,7.10
2022-10-16T16:39:01.005Z,6.95
2022-10-16T16:41:37.611Z,5.85
2022-10-16T16:44:12.974Z,6.78
2022-10-16T16:46:47.050Z,6.45
2022-10-16T16:49:20.856Z,7.57
2022-10-16T16:51:55.613Z,7.90
2022-10-16T16:54:32.261Z,6.85
2022-10-16T16:57:08.643Z,8.10
2022-10-16T16:59:42.799Z,6.78
2022-10-16T17:02:16.928Z,8.18
2022-10-16T17:04:51.942Z,8.68
2022-10-16T17:07:27.159Z,7.43
2022-10-16T17:10:01.866Z,7.05
2022-10-16T17:12:38.453Z,6.72
2022-10-16T17:15:13.702Z,7.45
2022-10-16T17:17:47.804Z,7.47
2022-10-16T17:20:21.837Z,7.93
2022-10-16T17:22:55.887Z,7.03
2022-10-16T17:25:32.045Z,7.60
2022-10-16T17:28:12.012Z,7.68
2022-10-16T17:30:45.951Z,7.93
2022-10-16T17:33:19.855Z,8.35
2022-10-16T17:35:53.855Z,8.18
2022-10-16T17:38:27.799Z,8.13
2022-10-16T17:41:01.865Z,8.20
2022-10-16T17:43:38.411Z,8.60
2022-10-16T17:46:12.899Z,8.88
2022-10-16T17:48:47.638Z,9.00
2022-10-16T17:51:22.780Z,7.65
2022-10-16T17:53:57.884Z,9.85
2022-10-16T17:56:32.271Z,9.48
2022-10-16T17:59:08.453Z,9.30
2022-10-16T18:01:46.382Z,11.18
2022-10-16T18:04:20.945Z,11.00
2022-10-16T18:06:56.357Z,8.68
2022-10-16T18:09:31.096Z,10.48
2022-10-16T18:12:05.345Z,10.25
2022-10-16T18:14:43.289Z,11.23
2022-10-16T18:17:19.708Z,9.90
2022-10-16T18:19:53.933Z,12.27
2022-10-16T18:22:29.488Z,10.57
2022-10-16T18:25:04.683Z,10.82
2022-10-16T18:27:39.232Z,11.27
2022-10-16T18:30:15.886Z,11.90
2022-10-16T18:32:50.204Z,11.75
2022-10-16T18:35:24.131Z,12.63
2022-10-16T18:38:00.935Z,12.75
2022-10-16T18:40:36.299Z,12.53
2022-10-16T18:43:11.826Z,13.57
2022-10-16T18:45:58.031Z,13.00
2022-10-16T18:48:27.560Z,12.40
2022-10-16T18:51:11.752Z,14.82
2022-10-16T18:53:48.663Z,13.63
2022-10-16T18:56:24.748Z,15.15
2022-10-16T18:59:00.374Z,14.13
2022-10-16T19:01:44.616Z,15.75
2022-10-16T19:04:24.098Z,14.67
2022-10-16T19:06:59.327Z,14.23
2022-10-16T19:09:34.277Z,14.65
2022-10-16T19:12:10.217Z,15.70
2022-10-16T19:14:44.815Z,14.68
2022-10-16T19:17:27.246Z,14.70
2022-10-16T19:20:03.188Z,13.55
2022-10-16T19:22:54.033Z,13.50
2022-10-16T19:25:29.429Z,13.30
2022-10-16T19:28:13.718Z,14.90
2022-10-16T19:30:50.639Z,16.48
2022-10-16T19:33:28.497Z,15.68
2022-10-16T19:36:14.584Z,15.45
2022-10-16T19:38:49.090Z,14.32
2022-10-16T19:41:25.278Z,13.93
2022-10-16T19:44:04.053Z,15.80
2022-10-16T19:46:36.628Z,15.00
2022-10-16T19:49:15.397Z,15.20
2022-10-16T19:51:52.087Z,16.63
2022-10-16T19:54:26.644Z,15.00
2022-10-16T19:57:02.170Z,15.80
2022-10-16T19:59:38.047Z,15.87
2022-10-16T20:02:14.500Z,15.25
2022-10-16T20:04:53.214Z,15.03
2022-10-16T20:07:29.221Z,15.70
2022-10-16T20:10:06.193Z,16.95
2022-10-16T20:12:40.689Z,14.20
2022-10-16T20:15:15.748Z,15.53
2022-10-16T20:17:50.711Z,18.25
2022-10-16T20:20:28.012Z,19.50
2022-10-16T20:23:02.634Z,19.73
2022-10-16T20:25:38.725Z,18.48
2022-10-16T20:28:14.513Z,18.80
2022-10-16T20:30:50.065Z,20.30
2022-10-16T20:33:24.070Z,18.05
2022-10-16T20:36:00.795Z,18.58
2022-10-16T20:38:35.480Z,16.83
2022-10-16T20:41:10.068Z,17.07
2022-10-16T20:43:45.246Z,18.70
2022-10-16T20:46:20.173Z,15.88
2022-10-16T20:48:54.312Z,16.55
2022-10-16T20:51:32.062Z,20.60
2022-10-16T20:54:05.246Z,19.75
2022-10-16T20:56:39.734Z,17.27
2022-10-16T20:59:14.421Z,16.15
2022-10-16T21:01:49.342Z,19.65
2022-10-16T21:04:22.477Z,17.77
2022-10-16T21:07:00.469Z,16.15
2022-10-16T21:09:35.690Z,15.82
2022-10-16T21:12:13.185Z,15.93
2022-10-16T21:15:12.923Z,18.40
2022-10-16T21:17:42.281Z,17.77
2022-10-16T21:20:16.144Z,21.40
2022-10-16T21:22:52.827Z,19.83
2022-10-16T21:25:27.480Z,16.92
2022-10-16T21:28:02.304Z,17.80
2022-10-16T21:30:36.215Z,20.25
2022-10-16T21:33:10.418Z,18.50
2022-10-16T21:35:46.016Z,21.93
2022-10-16T21:38:23.634Z,18.75
2022-10-16T21:40:57.866Z,18.50
2022-10-16T21:43:32.418Z,21.52
2022-10-16T21:46:07.745Z,18.07
2022-10-16T21:48:43.276Z,16.27
2022-10-16T21:51:17.348Z,15.35
2022-10-16T21:53:55.309Z,18.77
2022-10-16T21:56:29.204Z,15.40
2022-10-16T21:59:03.040Z,17.00
2022-10-16T22:01:37.381Z,21.35
2022-10-16T22:04:13.462Z,22.80
2022-10-16T22:06:48.434Z,22.40
2022-10-16T22:09:28.541Z,23.55
2022-10-16T22:12:03.207Z,23.90
2022-10-16T22:14:36.956Z,22.60
2022-10-16T22:17:11.258Z,20.30
2022-10-16T22:19:45.098Z,23.10
2022-10-16T22:22:19.093Z,20.20
2022-10-16T22:24:56.075Z,22.20
2022-10-16T22:27:30.508Z,20.73
2022-10-16T22:30:05.085Z,23.25
2022-10-16T22:32:39.242Z,24.58
2022-10-16T22:35:13.521Z,22.95
2022-10-16T22:37:45.969Z,24.92
2022-10-16T22:40:22.606Z,25.50
2022-10-16T22:42:58.124Z,23.83
2022-10-16T22:45:32.275Z,21.97
2022-10-16T22:48:06.080Z,27.40
2022-10-16T22:50:40.067Z,28.40
2022-10-16T22:53:14.367Z,22.73
2022-10-16T22:55:50.536Z,25.13
2022-10-16T22:58:25.274Z,25.85
2022-10-16T23:00:59.008Z,25.60
2022-10-16T23:03:33.437Z,23.63
2022-10-16T23:06:08.663Z,26.30
2022-10-16T23:08:43.115Z,29.75
2022-10-16T23:11:19.993Z,26.13
2022-10-16T23:13:54.360Z,23.00
2022-10-16T23:16:28.201Z,23.27
2022-10-16T23:19:05.038Z,22.27
2022-10-16T23:21:37.302Z,25.20
2022-10-16T23:24:11.641Z,23.10
2022-10-16T23:26:48.671Z,26.63
2022-10-16T23:29:23.127Z,22.75
2022-10-16T23:31:57.269Z,23.30
2022-10-16T23:34:31.362Z,23.23
2022-10-16T23:37:03.958Z,24.38
2022-10-16T23:39:38.137Z,28.50
2022-10-16T23:42:15.007Z,31.13
2022-10-16T23:44:49.497Z,31.90
2022-10-16T23:47:22.770Z,29.25
2022-10-16T23:49:56.952Z,28.83
2022-10-16T23:52:31.158Z,28.10
2022-10-16T23:55:05.158Z,30.08
2022-10-16T23:57:42.352Z,26.50
